Time;durP1;ratioP1;P1;durP2;ratioP2;P2;SDS_P1;SDS_P2;PMS_P1;PMS_P2;Temp;Humidity;BMP_temperature;BMP_pressure;BME280_temperature;BME280_humidity;BME280_pressure;Samples;Min_cycle;Max_cycle;Signal;HPM_P1;HPM_P2
2022/10/04 00:00:24;;;;;;;2.92;2.17;;;17.80;78.90;;;;;;5001003;28;20022;-85
2022/10/04 00:02:53;;;;;;;4.00;2.92;;;17.90;78.60;;;;;;4997393;28;20088;-87
2022/10/04 00:05:29;;;;;;;5.03;2.55;;;17.90;78.30;;;;;;5018482;28;20061;-86
2022/10/04 00:08:26;;;;;;;5.60;2.67;;;17.80;78.10;;;;;;5001849;28;20117;-88
2022/10/04 00:11:28;;;;;;;5.47;2.95;;;17.80;78.50;;;;;;4991307;28;20034;-86
2022/10/04 00:13:57;;;;;;;4.40;2.85;;;17.80;78.70;;;;;;4988547;28;20073;-86
2022/10/04 00:16:30;;;;;;;4.82;2.78;;;17.90;78.40;;;;;;5005952;28;20101;-86
2022/10/04 00:19:07;;;;;;;5.35;3.03;;;18.00;78.00;;;;;;5002998;28;20026;-85
2022/10/04 00:21:55;;;;;;;4.45;2.78;;;17.80;77.90;;;;;;5017597;28;20034;-87
2022/10/04 00:24:29;;;;;;;5.55;2.65;;;17.70;78.00;;;;;;4997580;28;20046;-85
2022/10/04 00:27:19;;;;;;;8.77;3.58;;;17.70;78.80;;;;;;4997764;28;20497;-86
2022/10/04 00:30:02;;;;;;;4.10;2.72;;;17.70;78.60;;;;;;5000836;28;20073;-87
2022/10/04 00:32:38;;;;;;;5.88;2.67;;;17.50;78.70;;;;;;4997556;28;20117;-86
2022/10/04 00:35:23;;;;;;;4.53;3.13;;;17.60;78.90;;;;;;5001862;28;20525;-86
2022/10/04 00:38:13;;;;;;;4.45;3.03;;;17.70;78.50;;;;;;4988933;28;20117;-86
2022/10/04 00:40:45;;;;;;;3.85;2.53;;;17.70;78.70;;;;;;4981232;28;20031;-86
2022/10/04 00:43:21;;;;;;;4.80;3.22;;;17.70;78.50;;;;;;4991484;28;20382;-87
2022/10/04 00:45:57;;;;;;;5.55;2.90;;;17.70;78.40;;;;;;4999437;28;20030;-85
2022/10/04 00:48:22;;;;;;;4.78;3.08;;;17.70;78.40;;;;;;4996823;28;20037;-86
2022/10/04 00:51:18;;;;;;;6.82;3.15;;;17.60;78.50;;;;;;5012608;28;20027;-86
2022/10/04 00:54:05;;;;;;;4.13;2.90;;;17.40;78.90;;;;;;4996409;28;20053;-86
2022/10/04 00:57:16;;;;;;;6.70;3.20;;;17.40;79.20;;;;;;4978891;28;20027;-86
2022/10/04 00:59:51;;;;;;;5.75;3.08;;;17.50;78.70;;;;;;4966972;28;20054;-86
2022/10/04 01:02:44;;;;;;;4.32;3.22;;;17.40;78.90;;;;;;4978419;28;20033;-87
2022/10/04 01:05:20;;;;;;;5.20;3.22;;;17.30;78.50;;;;;;4977976;28;20034;-86
2022/10/04 01:08:09;;;;;;;6.32;2.97;;;17.30;79.30;;;;;;4992468;28;20035;-86
2022/10/04 01:10:48;;;;;;;4.50;2.95;;;17.30;79.40;;;;;;4977742;28;20111;-86
2022/10/04 01:13:27;;;;;;;5.60;3.08;;;17.30;79.40;;;;;;4977495;28;20118;-85
2022/10/04 01:16:17;;;;;;;4.55;3.08;;;17.30;79.10;;;;;;4995810;28;20042;-85
2022/10/04 01:18:44;;;;;;;5.35;3.60;;;17.40;79.00;;;;;;4977432;28;20033;-85
2022/10/04 01:21:19;;;;;;;5.47;3.63;;;17.40;78.70;;;;;;4995450;28;20023;-85
2022/10/04 01:23:57;;;;;;;5.78;3.55;;;17.30;78.90;;;;;;5000554;28;20065;-85
2022/10/04 01:26:29;;;;;;;5.15;3.30;;;17.40;79.00;;;;;;5018807;28;20069;-87
2022/10/04 01:29:13;;;;;;;6.60;3.30;;;17.30;78.80;;;;;;5008927;28;20081;-85
2022/10/04 01:31:50;;;;;;;6.35;3.83;;;17.30;79.10;;;;;;4999309;28;20096;-87
2022/10/04 01:34:22;;;;;;;5.85;3.53;;;17.30;79.00;;;;;;5001569;28;20022;-86
2022/10/04 01:36:51;;;;;;;6.45;3.42;;;17.30;78.70;;;;;;5000804;28;20030;-86
2022/10/04 01:39:19;;;;;;;7.05;4.05;;;17.30;78.60;;;;;;4998620;28;20033;-86
2022/10/04 01:41:57;;;;;;;8.38;4.03;;;17.20;79.10;;;;;;4998294;28;20384;-86
2022/10/04 01:44:31;;;;;;;5.75;3.17;;;17.10;79.20;;;;;;5017553;28;20036;-85
2022/10/04 01:47:01;;;;;;;5.20;3.42;;;17.20;79.40;;;;;;5014652;28;20172;-86
2022/10/04 01:49:31;;;;;;;7.78;3.83;;;17.20;79.10;;;;;;5002274;28;20022;-85
2022/10/04 01:52:13;;;;;;;5.38;2.95;;;17.20;79.20;;;;;;4994936;28;20031;-86
2022/10/04 01:54:43;;;;;;;5.63;3.10;;;17.30;78.80;;;;;;4997668;28;20030;-85
2022/10/04 01:57:16;;;;;;;6.93;3.63;;;17.30;78.50;;;;;;5001820;28;20056;-86
2022/10/04 01:59:50;;;;;;;8.40;3.97;;;17.30;78.60;;;;;;5018415;28;20030;-86
2022/10/04 02:02:29;;;;;;;5.85;3.42;;;17.20;78.80;;;;;;5015616;28;20057;-86
2022/10/04 02:05:17;;;;;;;5.95;3.53;;;17.30;79.10;;;;;;5016369;28;20029;-85
2022/10/04 02:07:44;;;;;;;7.97;4.03;;;17.30;78.80;;;;;;5014919;28;20108;-86
2022/10/04 02:10:17;;;;;;;8.23;3.55;;;17.30;78.70;;;;;;4997955;28;20018;-86
2022/10/04 02:12:46;;;;;;;4.63;3.38;;;17.40;78.50;;;;;;5001096;28;20409;-85
2022/10/04 02:15:13;;;;;;;8.07;3.90;;;17.30;78.20;;;;;;5002551;28;20093;-86
2022/10/04 02:17:42;;;;;;;8.95;3.97;;;17.30;78.70;;;;;;4998573;28;20084;-86
2022/10/04 02:20:14;;;;;;;6.27;3.77;;;17.30;78.70;;;;;;4994306;28;20042;-86
2022/10/04 02:22:42;;;;;;;5.78;3.65;;;17.30;78.70;;;;;;5001034;28;20037;-86
2022/10/04 02:25:08;;;;;;;5.65;3.35;;;17.30;78.60;;;;;;4997070;28;20069;-86
2022/10/04 02:27:52;;;;;;;8.50;3.95;;;17.00;79.40;;;;;;5001686;28;20520;-86
2022/10/04 02:30:18;;;;;;;4.88;3.45;;;17.10;79.10;;;;;;4996225;28;20065;-86
2022/10/04 02:32:56;;;;;;;7.03;4.07;;;17.20;79.20;;;;;;5006444;28;20022;-85
2022/10/04 02:35:26;;;;;;;5.68;3.60;;;17.20;79.10;;;;;;5000611;28;20096;-86
2022/10/04 02:38:21;;;;;;;6.47;3.95;;;17.20;79.00;;;;;;4997905;28;20030;-86
2022/10/04 02:40:56;;;;;;;7.70;4.28;;;17.10;79.10;;;;;;5015991;28;20034;-87
2022/10/04 02:44:04;;;;;;;5.53;3.55;;;17.10;78.80;;;;;;5014398;28;20044;-86
2022/10/04 02:46:59;;;;;;;7.05;4.10;;;17.00;79.20;;;;;;4979554;28;20092;-85
2022/10/04 02:49:36;;;;;;;7.20;4.15;;;17.00;79.00;;;;;;5010272;28;20076;-86
2022/10/04 02:52:15;;;;;;;6.63;4.07;;;16.90;79.50;;;;;;4987310;28;20030;-86
2022/10/04 02:55:06;;;;;;;7.50;4.38;;;16.90;79.30;;;;;;4978303;28;20069;-85
2022/10/04 02:57:33;;;;;;;7.30;4.05;;;16.90;79.40;;;;;;5011058;28;20030;-86
2022/10/04 03:00:24;;;;;;;6.28;3.83;;;17.00;79.30;;;;;;5015182;28;20105;-85
2022/10/04 03:03:08;;;;;;;;;;;17.00;79.20;;;;;;5017326;28;20562;-86
2022/10/04 03:05:34;;;;;;;8.52;4.75;;;17.00;79.10;;;;;;5015071;28;19909;-85
2022/10/04 03:08:00;;;;;;;9.90;4.32;;;17.10;78.70;;;;;;4985606;28;20026;-87
2022/10/04 03:10:26;;;;;;;7.30;4.50;;;17.00;78.90;;;;;;4996078;28;20065;-86
2022/10/04 03:12:52;;;;;;;8.27;4.38;;;17.00;78.60;;;;;;4997194;28;20030;-85
2022/10/04 03:15:19;;;;;;;8.77;4.18;;;16.90;79.20;;;;;;5018409;28;20484;-85
2022/10/04 03:17:45;;;;;;;8.25;4.78;;;17.00;79.20;;;;;;5015603;28;20534;-85
2022/10/04 03:20:15;;;;;;;7.38;4.03;;;16.90;79.40;;;;;;5020177;28;20088;-85
2022/10/04 03:22:43;;;;;;;8.38;4.95;;;17.00;78.90;;;;;;5001249;28;20118;-85
2022/10/04 03:25:17;;;;;;;7.10;4.45;;;17.00;79.20;;;;;;5021375;28;20058;-84
2022/10/04 03:27:43;;;;;;;6.93;4.18;;;17.10;79.10;;;;;;5000884;28;20034;-86
2022/10/04 03:30:35;;;;;;;7.93;4.75;;;17.00;79.00;;;;;;4984620;28;20027;-85
2022/10/04 03:33:02;;;;;;;7.60;4.50;;;17.10;78.80;;;;;;4998285;28;20068;-85
2022/10/04 03:35:33;;;;;;;7.30;4.32;;;17.20;78.80;;;;;;4998767;28;20037;-85
2022/10/04 03:38:02;;;;;;;6.53;3.88;;;17.20;78.70;;;;;;5018600;28;20076;-86
2022/10/04 03:40:31;;;;;;;7.60;5.22;;;17.20;78.60;;;;;;5000811;28;20030;-84
2022/10/04 03:43:00;;;;;;;10.65;4.65;;;17.20;78.70;;;;;;5021448;28;20030;-84
2022/10/04 03:45:27;;;;;;;8.53;4.30;;;17.20;78.60;;;;;;4997665;28;20084;-85
2022/10/04 03:48:00;;;;;;;7.93;4.57;;;17.10;78.70;;;;;;5001206;28;20042;-85
2022/10/04 03:50:28;;;;;;;8.25;4.65;;;17.10;79.10;;;;;;4998826;28;20249;-85
2022/10/04 03:53:16;;;;;;;9.85;5.38;;;17.00;79.00;;;;;;4998508;28;20776;-85
2022/10/04 03:55:44;;;;;;;8.05;5.30;;;17.00;79.10;;;;;;4999976;28;20103;-86
2022/10/04 03:58:13;;;;;;;8.57;4.38;;;17.00;79.30;;;;;;5000563;28;20030;-86
2022/10/04 04:00:57;;;;;;;7.80;4.40;;;17.00;79.20;;;;;;5021040;28;20029;-85
2022/10/04 04:03:27;;;;;;;8.07;4.53;;;17.10;79.10;;;;;;4997448;28;20034;-85
2022/10/04 04:05:59;;;;;;;8.52;4.78;;;17.00;79.10;;;;;;5001282;28;20077;-86
2022/10/04 04:08:33;;;;;;;9.65;4.43;;;17.10;79.10;;;;;;4998849;28;20038;-86
2022/10/04 04:11:01;;;;;;;9.73;4.53;;;17.00;79.10;;;;;;5020559;28;20025;-85
2022/10/04 04:13:45;;;;;;;6.28;3.97;;;17.00;79.20;;;;;;4999736;28;20030;-85
2022/10/04 04:16:11;;;;;;;7.10;4.53;;;17.00;79.30;;;;;;5018880;28;20026;-86
2022/10/04 04:18:42;;;;;;;12.32;5.78;;;17.00;79.20;;;;;;4998945;28;20037;-82
2022/10/04 04:21:08;;;;;;;8.70;4.70;;;17.00;79.40;;;;;;5017626;28;20036;-83
2022/10/04 04:23:38;;;;;;;7.68;4.47;;;17.00;79.20;;;;;;5001836;28;20053;-87
2022/10/04 04:26:19;;;;;;;11.07;5.60;;;17.00;79.30;;;;;;5017729;28;20116;-83
2022/10/04 04:29:02;;;;;;;10.13;5.45;;;17.00;79.40;;;;;;5018729;28;20026;-85
2022/10/04 04:31:31;;;;;;;7.90;4.55;;;17.00;79.30;;;;;;4999468;28;20065;-85
2022/10/04 04:34:12;;;;;;;9.20;4.97;;;17.10;79.30;;;;;;5016440;28;20395;-82
2022/10/04 04:36:40;;;;;;;11.80;5.53;;;17.10;79.30;;;;;;5016996;28;20038;-77
2022/10/04 04:42:15;;;;;;;8.73;4.88;;;17.10;79.10;;;;;;5009050;28;20045;-80
2022/10/04 04:44:59;;;;;;;9.57;5.15;;;17.10;79.10;;;;;;4996123;28;20523;-79
2022/10/04 04:47:46;;;;;;;8.32;4.45;;;17.10;79.20;;;;;;4995772;28;20591;-80
2022/10/04 04:50:29;;;;;;;11.45;4.88;;;16.90;79.60;;;;;;4995994;28;20018;-82
2022/10/04 04:53:03;;;;;;;10.55;4.57;;;17.00;79.70;;;;;;5011748;28;20030;-80
2022/10/04 04:55:50;;;;;;;12.60;5.07;;;16.90;79.60;;;;;;5016558;28;20022;-79
2022/10/04 04:58:25;;;;;;;10.15;5.65;;;17.00;79.70;;;;;;5016135;28;20037;-77
2022/10/04 05:00:59;;;;;;;8.75;4.75;;;17.00;79.50;;;;;;5015668;28;20022;-80
2022/10/04 05:03:25;;;;;;;12.85;6.00;;;17.00;79.60;;;;;;5015894;28;20037;-80
2022/10/04 05:05:53;;;;;;;9.65;5.53;;;17.00;79.60;;;;;;4983787;28;20042;-80
2022/10/04 05:08:22;;;;;;;11.02;5.85;;;17.00;79.70;;;;;;5003968;28;20046;-81
2022/10/04 05:11:07;;;;;;;9.45;5.80;;;17.00;79.90;;;;;;5001111;28;20072;-79
2022/10/04 05:13:41;;;;;;;13.10;6.30;;;16.90;80.10;;;;;;5013818;28;20105;-78
2022/10/04 05:16:20;;;;;;;11.98;6.68;;;17.00;80.00;;;;;;5008329;28;20040;-78
2022/10/04 05:18:47;;;;;;;15.70;7.10;;;16.90;80.10;;;;;;5009029;28;20026;-80
2022/10/04 05:21:27;;;;;;;13.55;7.10;;;17.00;80.20;;;;;;5016038;28;20492;-78
2022/10/04 05:23:56;;;;;;;12.13;7.00;;;17.00;80.30;;;;;;5006955;28;20073;-85
2022/10/04 05:26:29;;;;;;;13.80;8.25;;;17.00;80.10;;;;;;5007123;28;20105;-80
2022/10/04 05:29:00;;;;;;;13.93;8.20;;;16.90;80.40;;;;;;4998100;28;20030;-78
2022/10/04 05:31:33;;;;;;;13.52;7.03;;;17.00;80.30;;;;;;5009706;28;20022;-80
2022/10/04 05:33:58;;;;;;;15.82;7.43;;;17.00;80.30;;;;;;5014629;28;20101;-80
2022/10/04 05:36:43;;;;;;;13.70;7.03;;;16.90;80.20;;;;;;5002013;28;20063;-80
2022/10/04 05:39:26;;;;;;;14.23;7.65;;;16.90;80.30;;;;;;5016335;28;20471;-80
2022/10/04 05:42:17;;;;;;;11.32;6.57;;;16.90;80.30;;;;;;4997302;28;20228;-79
2022/10/04 05:45:00;;;;;;;13.60;7.15;;;16.80;80.30;;;;;;4996389;28;20090;-80
2022/10/04 05:47:30;;;;;;;13.55;6.97;;;16.80;80.10;;;;;;5009855;28;20028;-80
2022/10/04 05:49:57;;;;;;;12.02;6.25;;;16.80;80.30;;;;;;5014362;28;20021;-80
2022/10/04 05:52:50;;;;;;;11.23;6.50;;;16.80;80.30;;;;;;5014381;28;20039;-79
2022/10/04 05:55:49;;;;;;;15.05;7.40;;;16.90;80.50;;;;;;4996862;28;20101;-80
2022/10/04 05:58:44;;;;;;;12.43;6.72;;;16.90;80.20;;;;;;5014765;28;20037;-79
2022/10/04 06:01:26;;;;;;;12.05;6.03;;;16.90;80.20;;;;;;5014796;28;20421;-80
2022/10/04 06:04:26;;;;;;;13.13;5.82;;;16.90;80.20;;;;;;4996304;28;20061;-80
2022/10/04 06:07:25;;;;;;;7.73;4.07;;;16.80;80.20;;;;;;5007814;28;20065;-80
2022/10/04 06:10:24;;;;;;;7.75;4.90;;;16.80;80.20;;;;;;5015988;28;20026;-79
2022/10/04 06:12:54;;;;;;;8.20;3.97;;;16.80;80.00;;;;;;4996267;28;20030;-81
2022/10/04 06:15:40;;;;;;;7.28;3.80;;;16.60;80.30;;;;;;4996335;28;20105;-80
2022/10/04 06:18:25;;;;;;;9.07;5.05;;;16.60;80.30;;;;;;4996540;28;20445;-80
2022/10/04 06:21:29;;;;;;;8.60;4.65;;;16.60;80.40;;;;;;4996820;28;20073;-79
2022/10/04 06:24:14;;;;;;;12.27;5.43;;;16.60;80.60;;;;;;4909322;28;20100;-79
2022/10/04 06:27:08;;;;;;;9.27;4.82;;;16.70;80.40;;;;;;5015755;28;20080;-79
2022/10/04 06:29:46;;;;;;;10.05;4.45;;;16.70;80.50;;;;;;5015699;28;20457;-80
2022/10/04 06:32:44;;;;;;;6.75;4.68;;;16.70;80.40;;;;;;5015135;28;20045;-80
2022/10/04 06:35:47;;;;;;;9.52;5.47;;;16.80;80.20;;;;;;5015311;28;20472;-80
2022/10/04 06:38:37;;;;;;;14.23;5.80;;;16.80;80.30;;;;;;5002289;28;20500;-80
2022/10/04 06:41:03;;;;;;;8.38;5.68;;;16.80;80.30;;;;;;5015089;28;20073;-80
2022/10/04 06:43:58;;;;;;;13.70;5.50;;;16.80;80.30;;;;;;5014444;28;20377;-80
2022/10/04 06:46:23;;;;;;;8.35;4.47;;;16.80;80.20;;;;;;5012027;28;20046;-80
2022/10/04 06:49:01;;;;;;;11.85;5.18;;;16.80;80.30;;;;;;5014156;28;20025;-80
2022/10/04 06:52:08;;;;;;;10.77;5.68;;;16.80;80.20;;;;;;5015555;28;20131;-79
2022/10/04 06:54:52;;;;;;;12.45;5.90;;;16.80;80.10;;;;;;5018108;28;20018;-80
2022/10/04 06:57:37;;;;;;;9.85;5.38;;;16.80;80.00;;;;;;4982415;28;20038;-80
2022/10/04 07:00:22;;;;;;;9.30;4.40;;;16.90;80.00;;;;;;5002251;28;20785;-80
2022/10/04 07:02:56;;;;;;;9.57;4.95;;;16.80;80.10;;;;;;5019337;28;20076;-80
2022/10/04 07:05:35;;;;;;;7.90;4.45;;;16.80;80.10;;;;;;5019241;28;20026;-80
2022/10/04 07:08:32;;;;;;;8.63;4.30;;;16.90;80.10;;;;;;5001080;28;20034;-79
2022/10/04 07:11:17;;;;;;;7.45;3.90;;;16.90;80.00;;;;;;5019019;28;20026;-80
2022/10/04 07:13:55;;;;;;;9.05;4.47;;;16.90;80.10;;;;;;5001601;28;20457;-80
2022/10/04 07:16:48;;;;;;;8.45;4.95;;;16.80;80.10;;;;;;5014149;28;20081;-80
2022/10/04 07:19:20;;;;;;;10.38;4.78;;;16.80;80.10;;;;;;4999232;28;20045;-80
2022/10/04 07:21:59;;;;;;;7.60;4.97;;;16.80;80.20;;;;;;5000173;28;20366;-80
2022/10/04 07:24:44;;;;;;;7.20;4.45;;;16.80;80.00;;;;;;4985267;28;20057;-80
2022/10/04 07:27:17;;;;;;;5.15;4.00;;;16.90;80.10;;;;;;5003980;28;20520;-79
2022/10/04 07:29:47;;;;;;;7.63;4.13;;;16.80;80.20;;;;;;4997838;28;20169;-80
2022/10/04 07:32:37;;;;;;;6.28;3.55;;;16.90;80.30;;;;;;4999022;28;20037;-80
2022/10/04 07:35:09;;;;;;;9.57;4.72;;;16.90;80.20;;;;;;4999244;28;20030;-80
2022/10/04 07:38:09;;;;;;;7.70;4.63;;;16.90;80.20;;;;;;4999345;28;20081;-80
2022/10/04 07:40:57;;;;;;;8.25;3.72;;;17.00;80.10;;;;;;4999043;28;20026;-80
2022/10/04 07:43:28;;;;;;;13.10;5.07;;;17.00;79.90;;;;;;4999363;28;20513;-79
2022/10/04 07:46:04;;;;;;;10.88;4.38;;;17.10;79.60;;;;;;4997498;28;20062;-80
2022/10/04 07:48:30;;;;;;;4.45;2.40;;;17.20;79.20;;;;;;4997684;28;20774;-80
2022/10/04 07:51:34;;;;;;;6.30;2.63;;;17.20;79.00;;;;;;4997309;28;20118;-80
2022/10/04 07:54:15;;;;;;;10.63;2.63;;;17.30;78.70;;;;;;5002174;28;20026;-80
2022/10/04 07:57:05;;;;;;;3.90;1.90;;;17.20;78.40;;;;;;5000775;28;20448;-80
2022/10/04 08:00:23;;;;;;;6.25;2.78;;;17.30;78.40;;;;;;5018205;28;20038;-80
2022/10/04 08:02:52;;;;;;;2.55;1.65;;;17.30;78.10;;;;;;4919333;29;20119;-80
2022/10/04 08:05:28;;;;;;;3.25;1.90;;;17.30;77.90;;;;;;4919233;29;20040;-80
2022/10/04 08:08:02;;;;;;;1.90;1.08;;;17.30;78.00;;;;;;4970919;28;20050;-80
2022/10/04 08:10:45;;;;;;;3.65;1.88;;;17.30;77.70;;;;;;5016443;28;20087;-81
2022/10/04 08:13:46;;;;;;;2.60;1.60;;;17.30;77.70;;;;;;5017939;28;20102;-81
2022/10/04 08:16:40;;;;;;;3.10;1.35;;;17.40;77.40;;;;;;5017599;28;20026;-80
2022/10/04 08:19:23;;;;;;;1.88;1.25;;;17.40;77.00;;;;;;4999936;28;20026;-80
2022/10/04 08:21:58;;;;;;;3.70;1.90;;;17.60;76.90;;;;;;5017849;28;20104;-80
2022/10/04 08:24:26;;;;;;;3.20;1.17;;;17.60;76.70;;;;;;5017875;28;20046;-79
2022/10/04 08:27:17;;;;;;;2.95;1.05;;;17.70;76.30;;;;;;5017221;28;20456;-80
2022/10/04 08:30:03;;;;;;;2.08;1.27;;;17.80;75.80;;;;;;4999760;28;20025;-80
2022/10/04 08:33:00;;;;;;;1.95;0.88;;;17.80;75.40;;;;;;5017409;28;20031;-80
2022/10/04 08:35:35;;;;;;;2.13;0.88;;;17.90;75.20;;;;;;5017397;28;20109;-80
2022/10/04 08:38:32;;;;;;;1.15;0.70;;;17.80;74.60;;;;;;5012212;28;20493;-80
2022/10/04 08:41:07;;;;;;;1.60;0.75;;;17.80;74.70;;;;;;4998072;28;20073;-79
2022/10/04 08:44:10;;;;;;;1.38;0.98;;;17.80;75.30;;;;;;4997743;28;20049;-79
2022/10/04 08:46:54;;;;;;;3.03;0.90;;;17.80;75.30;;;;;;4998948;28;20030;-79
2022/10/04 08:50:11;;;;;;;2.08;1.23;;;17.90;74.80;;;;;;5017169;28;20057;-80
2022/10/04 08:53:12;;;;;;;2.13;0.73;;;17.80;74.30;;;;;;5017256;28;20106;-81
2022/10/04 08:56:35;;;;;;;4.60;1.00;;;17.90;74.80;;;;;;4996982;28;20033;-80
2022/10/04 08:59:31;;;;;;;1.88;1.00;;;17.90;74.90;;;;;;4918391;29;20032;-81
2022/10/04 09:02:47;;;;;;;1.50;0.80;;;17.90;75.10;;;;;;4918147;29;20075;-81
2022/10/04 09:05:32;;;;;;;2.03;0.80;;;18.10;74.40;;;;;;5016982;28;20385;-80
2022/10/04 09:08:25;;;;;;;3.10;0.77;;;18.20;74.20;;;;;;4996161;28;20075;-80
2022/10/04 09:11:32;;;;;;;1.08;0.70;;;18.20;73.80;;;;;;5003749;28;20022;-80
2022/10/04 09:14:29;;;;;;;1.77;0.50;;;18.20;73.80;;;;;;5016097;28;20057;-81
2022/10/04 09:17:18;;;;;;;2.25;0.68;;;18.20;74.10;;;;;;5016082;28;20026;-80
2022/10/04 09:20:19;;;;;;;1.27;0.70;;;18.20;74.10;;;;;;5016289;28;20029;-81
2022/10/04 09:22:50;;;;;;;0.80;0.43;;;18.30;74.20;;;;;;5016680;28;20057;-80
2022/10/04 09:25:41;;;;;;;2.13;0.77;;;18.30;74.30;;;;;;5016649;28;20054;-81
2022/10/04 09:28:34;;;;;;;2.78;0.80;;;18.20;74.30;;;;;;5011254;28;20031;-82
2022/10/04 09:31:19;;;;;;;1.98;0.77;;;18.20;74.60;;;;;;4997054;28;20022;-80
2022/10/04 09:33:56;;;;;;;2.22;1.10;;;18.30;74.60;;;;;;4996925;28;20072;-80
2022/10/04 09:36:34;;;;;;;10.52;1.45;;;18.30;74.80;;;;;;4995509;28;20038;-81
2022/10/04 09:39:20;;;;;;;4.03;0.90;;;18.30;74.80;;;;;;4997021;28;20090;-81
2022/10/04 09:42:14;;;;;;;2.38;0.80;;;18.50;74.60;;;;;;4979368;28;20058;-81
2022/10/04 09:44:52;;;;;;;2.10;0.80;;;18.80;74.10;;;;;;5006115;28;20033;-81
2022/10/04 09:47:30;;;;;;;1.30;0.77;;;19.00;73.90;;;;;;5014631;28;20373;-81
2022/10/04 09:50:30;;;;;;;2.53;0.80;;;19.10;73.00;;;;;;5016229;28;20018;-80
2022/10/04 09:52:59;;;;;;;1.70;0.65;;;19.20;72.70;;;;;;5015747;28;20022;-80
2022/10/04 09:55:33;;;;;;;2.17;0.98;;;19.00;72.50;;;;;;4996728;28;20022;-80
2022/10/04 09:58:28;;;;;;;3.05;0.77;;;18.90;72.80;;;;;;4995337;28;20042;-80
2022/10/04 10:01:15;;;;;;;3.15;0.95;;;18.80;72.90;;;;;;5006800;28;20026;-80
2022/10/04 10:04:01;;;;;;;4.07;0.82;;;18.80;73.30;;;;;;5015987;28;20037;-80
2022/10/04 10:07:11;;;;;;;0.93;0.60;;;18.90;73.60;;;;;;4998453;28;20025;-81
2022/10/04 10:15:42;;;;;;;1.35;0.63;;;18.80;73.10;;;;;;5015501;28;20793;-81
2022/10/04 10:18:38;;;;;;;1.10;0.65;;;18.80;73.10;;;;;;4971522;28;20034;-81
2022/10/04 10:21:11;;;;;;;1.58;0.63;;;18.70;73.20;;;;;;4929665;28;20176;-80
2022/10/04 10:23:45;;;;;;;1.30;0.70;;;18.60;73.30;;;;;;5015716;28;20436;-80
2022/10/04 10:27:01;;;;;;;0.68;0.40;;;18.70;73.60;;;;;;5014691;28;20026;-80
2022/10/04 10:29:47;;;;;;;1.92;0.40;;;18.80;73.00;;;;;;5015124;28;20045;-80
2022/10/04 10:32:46;;;;;;;2.75;0.57;;;18.80;72.80;;;;;;5015588;28;20092;-80
2022/10/04 10:35:24;;;;;;;0.90;0.40;;;18.80;72.70;;;;;;4998400;28;20022;-80
2022/10/04 10:38:14;;;;;;;1.70;0.52;;;18.80;72.60;;;;;;4996114;28;20440;-80
2022/10/04 10:41:09;;;;;;;0.60;0.40;;;18.80;72.90;;;;;;4996056;28;20041;-80
2022/10/04 10:44:00;;;;;;;2.42;0.50;;;18.80;72.70;;;;;;4994720;28;20038;-80
2022/10/04 10:46:44;;;;;;;0.85;0.50;;;18.80;73.10;;;;;;5001199;28;20046;-80
2022/10/04 10:49:24;;;;;;;1.58;0.55;;;18.90;72.80;;;;;;5020519;28;20496;-80
2022/10/04 10:52:03;;;;;;;;;;;18.80;72.60;;;;;;5015773;28;20022;-81
2022/10/04 10:54:57;;;;;;;1.20;0.60;;;18.80;72.80;;;;;;4997331;28;20395;-81
2022/10/04 10:58:04;;;;;;;0.85;0.40;;;18.80;72.50;;;;;;4995747;28;20038;-80
2022/10/04 11:00:51;;;;;;;0.73;0.30;;;18.80;72.30;;;;;;4950515;28;20039;-80
2022/10/04 11:03:49;;;;;;;0.68;0.40;;;18.80;72.80;;;;;;4994150;28;20038;-80
2022/10/04 11:06:37;;;;;;;1.63;0.40;;;18.80;72.90;;;;;;5003803;28;20018;-80
2022/10/04 11:09:31;;;;;;;0.50;0.35;;;18.80;72.80;;;;;;4987307;28;20038;-80
2022/10/04 11:12:06;;;;;;;0.73;0.40;;;18.80;72.40;;;;;;5005848;28;20518;-81
2022/10/04 11:15:02;;;;;;;0.70;0.50;;;18.80;72.20;;;;;;5018740;28;20025;-87
2022/10/04 11:18:04;;;;;;;0.57;0.30;;;19.00;71.80;;;;;;4995491;28;20054;-80
2022/10/04 11:21:06;;;;;;;0.47;0.30;;;19.10;71.70;;;;;;4955569;28;20041;-87
2022/10/04 11:24:00;;;;;;;0.47;0.30;;;19.20;70.90;;;;;;5005854;28;20139;-86
2022/10/04 11:27:04;;;;;;;2.03;0.38;;;19.20;70.70;;;;;;5011997;28;20024;-87
2022/10/04 11:29:29;;;;;;;0.70;0.30;;;19.20;70.50;;;;;;4993333;28;20041;-89
2022/10/04 11:32:23;;;;;;;0.50;0.32;;;19.10;70.80;;;;;;5011317;28;20481;-81
2022/10/04 11:34:58;;;;;;;0.85;0.43;;;19.20;71.00;;;;;;5005365;28;20026;-86
2022/10/04 11:38:10;;;;;;;0.63;0.38;;;19.10;71.00;;;;;;4990013;28;20080;-85
2022/10/04 11:40:50;;;;;;;0.43;0.30;;;19.00;71.60;;;;;;5005108;28;20038;-85
2022/10/04 11:43:31;;;;;;;0.57;0.30;;;19.00;71.70;;;;;;5007982;28;20029;-83
2022/10/04 11:46:34;;;;;;;3.30;1.02;;;19.00;71.70;;;;;;5007676;28;20026;-85
2022/10/04 11:49:21;;;;;;;1.13;0.40;;;18.90;71.60;;;;;;4988471;28;20830;-83
2022/10/04 11:51:49;;;;;;;3.08;0.40;;;18.90;71.70;;;;;;5018391;28;20092;-81
2022/10/04 11:54:49;;;;;;;2.13;0.40;;;18.90;71.80;;;;;;5017794;28;20392;-85
2022/10/04 11:57:26;;;;;;;0.65;0.30;;;18.90;71.90;;;;;;5011728;28;20097;-85
2022/10/04 12:00:19;;;;;;;0.30;0.30;;;18.80;72.10;;;;;;4996172;28;20034;-81
2022/10/04 12:03:19;;;;;;;0.57;0.38;;;18.90;71.90;;;;;;4990155;28;20022;-80
2022/10/04 12:06:21;;;;;;;1.45;0.75;;;18.90;71.20;;;;;;4994039;28;20026;-80
2022/10/04 12:09:03;;;;;;;2.00;1.13;;;19.00;71.40;;;;;;5010427;28;20646;-80
2022/10/04 12:14:28;;;;;;;1.08;0.50;;;19.10;71.40;;;;;;5007645;28;20206;-81
2022/10/04 12:17:43;;;;;;;3.22;0.60;;;19.20;71.40;;;;;;5005783;28;20476;-81
2022/10/04 12:20:31;;;;;;;2.90;0.70;;;19.20;71.30;;;;;;4971527;28;20039;-82
2022/10/04 12:23:15;;;;;;;2.30;0.60;;;19.20;71.20;;;;;;5010323;28;20045;-80
2022/10/04 12:26:08;;;;;;;2.78;0.93;;;19.10;71.80;;;;;;4990141;28;20129;-83
2022/10/04 12:29:16;;;;;;;8.32;2.08;;;18.90;71.80;;;;;;5007883;28;20049;-78
2022/10/04 12:31:55;;;;;;;1.00;0.50;;;19.00;72.10;;;;;;4910882;29;20051;-76
2022/10/04 12:34:40;;;;;;;0.52;0.30;;;19.00;72.20;;;;;;4912640;29;20522;-80
2022/10/04 12:37:18;;;;;;;1.73;0.60;;;19.00;72.50;;;;;;4985948;28;20149;-78
2022/10/04 12:39:57;;;;;;;1.38;0.80;;;18.90;72.30;;;;;;5006958;28;20034;-84
2022/10/04 12:42:45;;;;;;;2.05;0.88;;;18.90;72.90;;;;;;4989294;28;20022;-79
2022/10/04 12:45:26;;;;;;;2.70;0.70;;;18.90;72.80;;;;;;4990233;28;20053;-78
2022/10/04 12:48:06;;;;;;;3.10;0.88;;;18.90;73.00;;;;;;5008977;28;20053;-78
2022/10/04 12:50:51;;;;;;;;;;;18.90;72.80;;;;;;4989481;28;20473;-79
2022/10/04 12:53:33;;;;;;;1.20;0.73;;;19.00;72.90;;;;;;5005591;28;20365;-78
2022/10/04 12:55:59;;;;;;;1.83;0.70;;;18.80;72.20;;;;;;5006750;28;20019;-78
2022/10/04 12:58:39;;;;;;;0.90;0.60;;;18.70;72.50;;;;;;5005143;28;20088;-78
2022/10/04 13:01:34;;;;;;;1.25;0.70;;;18.70;72.70;;;;;;5006914;28;20050;-79
2022/10/04 13:04:34;;;;;;;3.67;0.90;;;18.70;73.20;;;;;;5008781;28;20107;-78
2022/10/04 13:07:37;;;;;;;1.80;0.70;;;18.70;73.50;;;;;;5004265;28;20035;-79
2022/10/04 13:10:31;;;;;;;1.50;0.80;;;18.70;73.70;;;;;;5015977;28;20025;-79
2022/10/04 13:13:31;;;;;;;1.02;0.47;;;18.70;73.80;;;;;;5007364;28;20507;-79
2022/10/04 13:16:20;;;;;;;1.35;0.60;;;18.80;73.90;;;;;;5003448;28;20815;-78
2022/10/04 13:19:14;;;;;;;0.77;0.60;;;18.80;73.70;;;;;;4986272;28;20501;-79
2022/10/04 13:21:40;;;;;;;2.63;0.70;;;18.80;73.30;;;;;;5008583;28;20390;-79
2022/10/04 13:24:53;;;;;;;1.42;0.75;;;18.80;73.70;;;;;;5001922;28;20054;-79
2022/10/04 13:27:40;;;;;;;3.40;0.88;;;18.80;73.90;;;;;;4988504;28;20047;-79
2022/10/04 13:30:32;;;;;;;1.00;0.52;;;18.80;74.00;;;;;;4966663;28;20121;-79
2022/10/04 13:33:18;;;;;;;0.60;0.40;;;18.80;73.50;;;;;;4996643;28;20100;-79
2022/10/04 13:35:56;;;;;;;1.25;0.63;;;18.80;73.60;;;;;;4956593;28;20038;-79
2022/10/04 13:38:23;;;;;;;1.35;0.80;;;18.80;73.60;;;;;;5001734;28;20032;-79
2022/10/04 13:41:07;;;;;;;1.20;0.60;;;18.80;73.50;;;;;;5015923;28;20036;-79
2022/10/04 13:43:51;;;;;;;1.98;0.73;;;18.70;73.40;;;;;;5005008;28;20684;-83
2022/10/04 13:46:26;;;;;;;1.40;0.55;;;18.80;73.60;;;;;;5006366;28;20026;-80
2022/10/04 13:49:17;;;;;;;1.50;0.60;;;19.10;73.40;;;;;;4997720;28;20133;-80
2022/10/04 13:51:46;;;;;;;3.10;1.10;;;19.30;73.00;;;;;;5010763;28;20026;-80
2022/10/04 13:58:01;;;;;;;1.63;0.60;;;19.50;71.80;;;;;;5000587;28;20044;-80
2022/10/04 14:01:00;;;;;;;1.25;0.70;;;19.60;71.80;;;;;;4955721;28;20057;-80
2022/10/04 14:04:01;;;;;;;1.23;0.50;;;19.80;71.20;;;;;;5015266;28;20022;-80
2022/10/04 14:06:27;;;;;;;0.93;0.50;;;19.70;71.20;;;;;;5016041;28;20034;-80
2022/10/04 14:09:07;;;;;;;1.40;0.55;;;19.60;71.20;;;;;;5011938;28;20022;-80
2022/10/04 14:12:00;;;;;;;1.10;0.70;;;19.50;71.30;;;;;;5005958;28;20707;-80
2022/10/04 14:15:03;;;;;;;0.70;0.50;;;19.50;71.40;;;;;;5010108;28;20022;-80
2022/10/04 14:18:13;;;;;;;2.67;0.60;;;19.50;71.50;;;;;;5008524;28;20052;-80
2022/10/04 14:21:21;;;;;;;1.50;0.50;;;19.60;71.70;;;;;;4988158;28;20041;-85